Faneromeni — SVKG — position and weather

sailwx.info

Track history (hours):
 
Tides and Currents Weather Stations Pressure Air Temp Water Temp Dewpoint Dewpoint Depression Visibility Wind Speed Wind Dir Waves Ship Positions

Faneromeni

Last reported at 2016-Apr-11 04:33 UTC. Time now 2016-May-03 04:56 UTC.
Position N 35°58' W 005°30'.
Warning: this ship's position is 22 days out of date.

Length 230 m; draft 7.7 m.

Type: Cargo ship. MMSI: 240576000.

Date/timePositionNaut miles runAvg speedWind from/ knotsBaromVisibWave heightAir tempDewpointWater temp
2016-Apr-11 04:33N 35°58' W 005°30'8 7.7
2016-Apr-11 03:33N 36°04' W 005°23'5 5.0
2016-Apr-11 02:33N 36°03' W 005°17'221 9.5
2016-Apr-10 03:27N 36°35' W 000°46'10 9.3
2016-Apr-10 02:23N 36°37' W 000°34'18 9.5
2016-Apr-10 00:32N 36°39' W 000°13'9 9.5
2016-Apr-09 23:33N 36°40' W 000°01'10 9.5
2016-Apr-09 22:33N 36°42' E 000°11'9 9.5
2016-Apr-09 21:33N 36°43' E 000°22'10 9.8
2016-Apr-09 20:34N 36°45' E 000°34'10 9.7
2016-Apr-09 19:33N 36°46' E 000°46'10 9.2
2016-Apr-09 18:28N 36°47' E 000°59'8 9.3
2016-Apr-09 17:33N 36°48' E 001°09'10 9.7
2016-Apr-09 16:33N 36°50' E 001°21'10 9.6
2016-Apr-09 15:33N 36°51' E 001°33'10 9.7
2016-Apr-09 14:34N 36°53' E 001°45'10 9.1
2016-Apr-09 13:27N 36°54' E 001°57'442 8.6
2016-Apr-07 10:12N 37°28' E 011°10'16 9.5
2016-Apr-07 08:33N 37°21' E 011°28'10 9.5
2016-Apr-07 07:31N 37°19' E 011°40'67 9.6
2016-Apr-07 00:31N 36°58' E 013°00'13 9.6
2016-Apr-06 23:11N 36°54' E 013°15'7 9.6
2016-Apr-06 22:26N 36°51' E 013°23'9 9.7
2016-Apr-06 21:33N 36°48' E 013°34'9 9.5
2016-Apr-06 20:33N 36°45' E 013°45'10 9.7
2016-Apr-06 19:33N 36°42' E 013°56'10 9.6
2016-Apr-06 18:33N 36°39' E 014°07'10 9.7
2016-Apr-06 17:33N 36°35' E 014°19'1010.5
2016-Apr-06 16:33N 36°32' E 014°31'1010.2
2016-Apr-06 15:33N 36°28' E 014°43'1010.2
2016-Apr-06 14:33N 36°28' E 014°56'1010.0
2016-Apr-06 13:31N 36°28' E 015°08'1010.0
2016-Apr-06 12:32N 36°27' E 015°21'23 9.9
2016-Apr-06 10:12N 36°27' E 015°49'6 9.9
2016-Apr-06 09:33N 36°27' E 015°57'22 9.9
2016-Apr-06 07:22N 36°27' E 016°24'10 9.8
2016-Apr-06 06:24N 36°26' E 016°36'16210.1
2016-Apr-05 14:26N 36°23' E 019°57'167 9.7
2016-Apr-04 21:11N 36°37' E 023°24'610.2
2016-Apr-04 20:33N 36°43' E 023°28'1010.2
2016-Apr-04 19:33N 36°51' E 023°35'1010.1
2016-Apr-04 18:33N 37°01' E 023°37'1310.1
2016-Apr-04 17:14N 37°14' E 023°39'710.0
2016-Apr-04 16:33N 37°21' E 023°40'1110.0
2016-Apr-04 15:30N 37°32' E 023°41'910.0
2016-Apr-04 14:33N 37°41' E 023°41'1010.0
2016-Apr-04 13:33N 37°50' E 023°36'3 3.3
2016-Apr-04 12:34N 37°52' E 023°32'0 0.0
2016-Apr-04 11:34N 37°52' E 023°32'0 0.0
2016-Apr-04 10:31N 37°52' E 023°32'0 0.0
2016-Apr-04 09:32N 37°52' E 023°32'0 0.0
2016-Apr-04 08:32N 37°52' E 023°32'0 0.0
2016-Apr-04 07:32N 37°52' E 023°32'0 0.0
2016-Apr-04 06:31N 37°52' E 023°32'0 0.1
2016-Apr-04 05:31N 37°52' E 023°32'0 0.1
2016-Apr-04 04:31N 37°52' E 023°32'0 0.1
2016-Apr-04 03:31N 37°52' E 023°32'0 0.0
2016-Apr-04 02:31N 37°52' E 023°32'0 0.0
2016-Apr-04 01:31N 37°52' E 023°32'0 0.0
2016-Apr-04 00:31N 37°52' E 023°32'0 0.0
2016-Apr-03 23:31N 37°52' E 023°32'0 0.0
2016-Apr-03 22:31N 37°52' E 023°32'0 0.1
2016-Apr-03 21:31N 37°52' E 023°32'0 0.0
2016-Apr-03 20:31N 37°52' E 023°32'0 0.0
2016-Apr-03 19:31N 37°52' E 023°32'0 0.0
2016-Apr-03 18:31N 37°52' E 023°32'0 0.0
2016-Apr-03 17:31N 37°52' E 023°32'0 0.0
2016-Apr-03 16:31N 37°52' E 023°32'0 0.2
2016-Apr-03 15:31N 37°52' E 023°32'0 0.1
2016-Apr-03 14:31N 37°52' E 023°32'0 0.0
2016-Apr-03 13:31N 37°52' E 023°32'0 0.0
2016-Apr-03 12:31N 37°52' E 023°32'0 0.0
2016-Apr-03 11:31N 37°52' E 023°32'0 0.2
2016-Apr-03 10:31N 37°52' E 023°32'0 0.0
2016-Apr-03 09:31N 37°52' E 023°32'0 0.0
2016-Apr-03 08:31N 37°52' E 023°32'0 0.0
2016-Apr-03 07:31N 37°52' E 023°32'0 0.1
2016-Apr-03 06:31N 37°52' E 023°32'0 0.0
2016-Apr-03 05:31N 37°52' E 023°32'0 0.0
2016-Apr-03 04:31N 37°52' E 023°32'2 1.8
2016-Apr-03 03:34N 37°51' E 023°34'7 6.8
2016-Apr-03 02:34N 37°47' E 023°41'1010.2
2016-Apr-03 01:34N 37°39' E 023°48'1010.1
2016-Apr-03 00:34N 37°32' E 023°58'1010.1
2016-Apr-02 23:34N 37°24' E 024°05'1010.1
2016-Apr-02 22:33N 37°15' E 024°13'1010.2
2016-Apr-02 21:33N 37°07' E 024°20'1410.6
2016-Apr-02 20:12N 36°57' E 024°33'8 9.9
2016-Apr-02 19:22N 36°51' E 024°40'1210.3
2016-Apr-02 18:14N 36°41' E 024°46'6 9.4
2016-Apr-02 17:33N 36°35' E 024°50'1110.1
2016-Apr-02 16:27N 36°28' E 025°01'910.4
2016-Apr-02 15:32N 36°22' E 025°10'1010.0
2016-Apr-02 14:32N 36°16' E 025°20'1010.1
2016-Apr-02 13:32N 36°09' E 025°29'3510.2
2016-Apr-02 10:09N 35°47' E 026°03'610.2
2016-Apr-02 09:33N 35°43' E 026°08'1010.3
2016-Apr-02 08:33N 35°37' E 026°18'1010.3
2016-Apr-02 07:33N 35°31' E 026°28'1010.5
2016-Apr-02 06:33N 35°24' E 026°38'10 9.9
2016-Apr-02 05:33N 35°18' E 026°47'1010.1
2016-Apr-02 04:33N 35°11' E 026°57'1010.3
2016-Apr-02 03:32N 35°05' E 027°07'1510.3
2016-Apr-02 02:07N 34°55' E 027°20'610.2
2016-Apr-02 01:33N 34°52' E 027°26'1010.2
2016-Apr-02 00:33N 34°45' E 027°36'1210.4
2016-Apr-01 23:24N 34°38' E 027°47'  
Track history (hours):
 
Tides and Currents Weather Stations Pressure Air Temp Water Temp Dewpoint Dewpoint Depression Visibility Wind Speed Wind Dir Waves Ship Positions

Faneromeni

Last reported at 2016-Apr-11 04:33 UTC. Time now 2016-May-03 04:56 UTC.
Position N 35°58' W 005°30'.
Warning: this ship's position is 22 days out of date.

Length 230 m; draft 7.7 m.

Type: Cargo ship. MMSI: 240576000.

Date/timePositionNaut miles runAvg speedWind from/ knotsBaromVisibWave heightAir tempDewpointWater temp
2016-Apr-11 04:33N 35°58' W 005°30'8 7.7
2016-Apr-11 03:33N 36°04' W 005°23'5 5.0
2016-Apr-11 02:33N 36°03' W 005°17'221 9.5
2016-Apr-10 03:27N 36°35' W 000°46'10 9.3
2016-Apr-10 02:23N 36°37' W 000°34'18 9.5
2016-Apr-10 00:32N 36°39' W 000°13'9 9.5
2016-Apr-09 23:33N 36°40' W 000°01'10 9.5
2016-Apr-09 22:33N 36°42' E 000°11'9 9.5
2016-Apr-09 21:33N 36°43' E 000°22'10 9.8
2016-Apr-09 20:34N 36°45' E 000°34'10 9.7
2016-Apr-09 19:33N 36°46' E 000°46'10 9.2
2016-Apr-09 18:28N 36°47' E 000°59'8 9.3
2016-Apr-09 17:33N 36°48' E 001°09'10 9.7
2016-Apr-09 16:33N 36°50' E 001°21'10 9.6
2016-Apr-09 15:33N 36°51' E 001°33'10 9.7
2016-Apr-09 14:34N 36°53' E 001°45'10 9.1
2016-Apr-09 13:27N 36°54' E 001°57'442 8.6
2016-Apr-07 10:12N 37°28' E 011°10'16 9.5
2016-Apr-07 08:33N 37°21' E 011°28'10 9.5
2016-Apr-07 07:31N 37°19' E 011°40'67 9.6
2016-Apr-07 00:31N 36°58' E 013°00'13 9.6
2016-Apr-06 23:11N 36°54' E 013°15'7 9.6
2016-Apr-06 22:26N 36°51' E 013°23'9 9.7
2016-Apr-06 21:33N 36°48' E 013°34'9 9.5
2016-Apr-06 20:33N 36°45' E 013°45'10 9.7
2016-Apr-06 19:33N 36°42' E 013°56'10 9.6
2016-Apr-06 18:33N 36°39' E 014°07'10 9.7
2016-Apr-06 17:33N 36°35' E 014°19'1010.5
2016-Apr-06 16:33N 36°32' E 014°31'1010.2
2016-Apr-06 15:33N 36°28' E 014°43'1010.2
2016-Apr-06 14:33N 36°28' E 014°56'1010.0
2016-Apr-06 13:31N 36°28' E 015°08'1010.0
2016-Apr-06 12:32N 36°27' E 015°21'23 9.9
2016-Apr-06 10:12N 36°27' E 015°49'6 9.9
2016-Apr-06 09:33N 36°27' E 015°57'22 9.9
2016-Apr-06 07:22N 36°27' E 016°24'10 9.8
2016-Apr-06 06:24N 36°26' E 016°36'16210.1
2016-Apr-05 14:26N 36°23' E 019°57'167 9.7
2016-Apr-04 21:11N 36°37' E 023°24'610.2
2016-Apr-04 20:33N 36°43' E 023°28'1010.2
2016-Apr-04 19:33N 36°51' E 023°35'1010.1
2016-Apr-04 18:33N 37°01' E 023°37'1310.1
2016-Apr-04 17:14N 37°14' E 023°39'710.0
2016-Apr-04 16:33N 37°21' E 023°40'1110.0
2016-Apr-04 15:30N 37°32' E 023°41'910.0
2016-Apr-04 14:33N 37°41' E 023°41'1010.0
2016-Apr-04 13:33N 37°50' E 023°36'3 3.3
2016-Apr-04 12:34N 37°52' E 023°32'0 0.0
2016-Apr-04 11:34N 37°52' E 023°32'0 0.0
2016-Apr-04 10:31N 37°52' E 023°32'0 0.0
2016-Apr-04 09:32N 37°52' E 023°32'0 0.0
2016-Apr-04 08:32N 37°52' E 023°32'0 0.0
2016-Apr-04 07:32N 37°52' E 023°32'0 0.0
2016-Apr-04 06:31N 37°52' E 023°32'0 0.1
2016-Apr-04 05:31N 37°52' E 023°32'0 0.1
2016-Apr-04 04:31N 37°52' E 023°32'0 0.1
2016-Apr-04 03:31N 37°52' E 023°32'0 0.0
2016-Apr-04 02:31N 37°52' E 023°32'0 0.0
2016-Apr-04 01:31N 37°52' E 023°32'0 0.0
2016-Apr-04 00:31N 37°52' E 023°32'0 0.0
2016-Apr-03 23:31N 37°52' E 023°32'0 0.0
2016-Apr-03 22:31N 37°52' E 023°32'0 0.1
2016-Apr-03 21:31N 37°52' E 023°32'0 0.0
2016-Apr-03 20:31N 37°52' E 023°32'0 0.0
2016-Apr-03 19:31N 37°52' E 023°32'0 0.0
2016-Apr-03 18:31N 37°52' E 023°32'0 0.0
2016-Apr-03 17:31N 37°52' E 023°32'0 0.0
2016-Apr-03 16:31N 37°52' E 023°32'0 0.2
2016-Apr-03 15:31N 37°52' E 023°32'0 0.1
2016-Apr-03 14:31N 37°52' E 023°32'0 0.0
2016-Apr-03 13:31N 37°52' E 023°32'0 0.0
2016-Apr-03 12:31N 37°52' E 023°32'0 0.0
2016-Apr-03 11:31N 37°52' E 023°32'0 0.2
2016-Apr-03 10:31N 37°52' E 023°32'0 0.0
2016-Apr-03 09:31N 37°52' E 023°32'0 0.0
2016-Apr-03 08:31N 37°52' E 023°32'0 0.0
2016-Apr-03 07:31N 37°52' E 023°32'0 0.1
2016-Apr-03 06:31N 37°52' E 023°32'0 0.0
2016-Apr-03 05:31N 37°52' E 023°32'0 0.0
2016-Apr-03 04:31N 37°52' E 023°32'2 1.8
2016-Apr-03 03:34N 37°51' E 023°34'7 6.8
2016-Apr-03 02:34N 37°47' E 023°41'1010.2
2016-Apr-03 01:34N 37°39' E 023°48'1010.1
2016-Apr-03 00:34N 37°32' E 023°58'1010.1
2016-Apr-02 23:34N 37°24' E 024°05'1010.1
2016-Apr-02 22:33N 37°15' E 024°13'1010.2
2016-Apr-02 21:33N 37°07' E 024°20'1410.6
2016-Apr-02 20:12N 36°57' E 024°33'8 9.9
2016-Apr-02 19:22N 36°51' E 024°40'1210.3
2016-Apr-02 18:14N 36°41' E 024°46'6 9.4
2016-Apr-02 17:33N 36°35' E 024°50'1110.1
2016-Apr-02 16:27N 36°28' E 025°01'910.4
2016-Apr-02 15:32N 36°22' E 025°10'1010.0
2016-Apr-02 14:32N 36°16' E 025°20'1010.1
2016-Apr-02 13:32N 36°09' E 025°29'3510.2
2016-Apr-02 10:09N 35°47' E 026°03'610.2
2016-Apr-02 09:33N 35°43' E 026°08'1010.3
2016-Apr-02 08:33N 35°37' E 026°18'1010.3
2016-Apr-02 07:33N 35°31' E 026°28'1010.5
2016-Apr-02 06:33N 35°24' E 026°38'10 9.9
2016-Apr-02 05:33N 35°18' E 026°47'1010.1
2016-Apr-02 04:33N 35°11' E 026°57'1010.3
2016-Apr-02 03:32N 35°05' E 027°07'1510.3
2016-Apr-02 02:07N 34°55' E 027°20'610.2
2016-Apr-02 01:33N 34°52' E 027°26'1010.2
2016-Apr-02 00:33N 34°45' E 027°36'1210.4
2016-Apr-01 23:24N 34°38' E 027°47'  

Dump ship's entire track history